sensor_id;sensor_type;location;lat;lon;timestamp;temperature;humidity
5415;DHT22;2730;51.512;7.504;2023-11-21T00:02:26;7.60;99.90
5415;DHT22;2730;51.512;7.504;2023-11-21T00:04:53;7.60;99.90
5415;DHT22;2730;51.512;7.504;2023-11-21T00:07:20;7.70;99.90
5415;DHT22;2730;51.512;7.504;2023-11-21T00:09:47;7.60;99.90
5415;DHT22;2730;51.512;7.504;2023-11-21T00:12:14;7.70;99.90
5415;DHT22;2730;51.512;7.504;2023-11-21T00:14:41;7.70;99.90
5415;DHT22;2730;51.512;7.504;2023-11-21T00:17:08;7.70;99.90
5415;DHT22;2730;51.512;7.504;2023-11-21T00:19:37;7.70;99.90
5415;DHT22;2730;51.512;7.504;2023-11-21T00:22:03;7.70;99.40
5415;DHT22;2730;51.512;7.504;2023-11-21T00:24:32;7.70;99.40
5415;DHT22;2730;51.512;7.504;2023-11-21T00:26:58;7.70;99.40
5415;DHT22;2730;51.512;7.504;2023-11-21T00:29:25;7.70;99.80
5415;DHT22;2730;51.512;7.504;2023-11-21T00:31:52;7.70;99.70
5415;DHT22;2730;51.512;7.504;2023-11-21T00:34:19;7.80;99.80
5415;DHT22;2730;51.512;7.504;2023-11-21T00:36:47;7.70;99.50
5415;DHT22;2730;51.512;7.504;2023-11-21T00:39:14;7.80;98.90
5415;DHT22;2730;51.512;7.504;2023-11-21T00:41:41;7.80;98.60
5415;DHT22;2730;51.512;7.504;2023-11-21T00:44:10;7.70;98.10
5415;DHT22;2730;51.512;7.504;2023-11-21T00:46:37;7.80;98.30
5415;DHT22;2730;51.512;7.504;2023-11-21T00:49:04;7.80;97.80
5415;DHT22;2730;51.512;7.504;2023-11-21T00:51:30;7.80;96.80
5415;DHT22;2730;51.512;7.504;2023-11-21T00:53:59;7.80;96.30
5415;DHT22;2730;51.512;7.504;2023-11-21T00:56:25;7.80;95.60
5415;DHT22;2730;51.512;7.504;2023-11-21T00:58:53;7.70;94.30
5415;DHT22;2730;51.512;7.504;2023-11-21T01:01:20;7.70;94.10
5415;DHT22;2730;51.512;7.504;2023-11-21T01:03:47;7.70;94.20
5415;DHT22;2730;51.512;7.504;2023-11-21T01:06:14;7.70;94.60
5415;DHT22;2730;51.512;7.504;2023-11-21T01:08:41;7.70;94.80
5415;DHT22;2730;51.512;7.504;2023-11-21T01:11:09;7.80;96.10
5415;DHT22;2730;51.512;7.504;2023-11-21T01:13:37;7.80;96.10
5415;DHT22;2730;51.512;7.504;2023-11-21T01:16:05;7.80;96.20
5415;DHT22;2730;51.512;7.504;2023-11-21T01:18:34;7.80;96.10
5415;DHT22;2730;51.512;7.504;2023-11-21T01:21:01;7.80;95.90
5415;DHT22;2730;51.512;7.504;2023-11-21T01:23:28;7.80;94.90
5415;DHT22;2730;51.512;7.504;2023-11-21T01:25:56;7.80;94.20
5415;DHT22;2730;51.512;7.504;2023-11-21T01:28:24;7.90;93.10
5415;DHT22;2730;51.512;7.504;2023-11-21T01:30:52;7.80;91.80
5415;DHT22;2730;51.512;7.504;2023-11-21T01:33:21;7.80;90.70
5415;DHT22;2730;51.512;7.504;2023-11-21T01:35:50;7.80;89.70
5415;DHT22;2730;51.512;7.504;2023-11-21T01:38:20;7.80;89.00
5415;DHT22;2730;51.512;7.504;2023-11-21T01:40:47;7.80;88.80
5415;DHT22;2730;51.512;7.504;2023-11-21T01:43:14;7.80;87.30
5415;DHT22;2730;51.512;7.504;2023-11-21T01:45:43;7.80;86.80
5415;DHT22;2730;51.512;7.504;2023-11-21T01:48:12;7.80;86.60
5415;DHT22;2730;51.512;7.504;2023-11-21T01:50:39;7.80;85.40
5415;DHT22;2730;51.512;7.504;2023-11-21T01:53:06;7.80;85.90
5415;DHT22;2730;51.512;7.504;2023-11-21T01:55:33;7.70;84.90
5415;DHT22;2730;51.512;7.504;2023-11-21T01:58:01;7.70;85.70
5415;DHT22;2730;51.512;7.504;2023-11-21T02:00:27;7.70;87.40
5415;DHT22;2730;51.512;7.504;2023-11-21T02:02:56;7.80;89.20
5415;DHT22;2730;51.512;7.504;2023-11-21T02:05:23;7.70;90.60
5415;DHT22;2730;51.512;7.504;2023-11-21T02:07:51;7.70;90.50
5415;DHT22;2730;51.512;7.504;2023-11-21T02:10:18;7.80;91.00
5415;DHT22;2730;51.512;7.504;2023-11-21T02:12:48;7.70;92.20
5415;DHT22;2730;51.512;7.504;2023-11-21T02:15:16;7.70;91.80
5415;DHT22;2730;51.512;7.504;2023-11-21T02:17:45;7.70;91.80
5415;DHT22;2730;51.512;7.504;2023-11-21T02:20:14;7.60;91.50
5415;DHT22;2730;51.512;7.504;2023-11-21T02:22:41;7.60;91.30
5415;DHT22;2730;51.512;7.504;2023-11-21T02:25:10;7.60;91.60
5415;DHT22;2730;51.512;7.504;2023-11-21T02:27:37;7.60;92.80
5415;DHT22;2730;51.512;7.504;2023-11-21T02:30:04;7.60;94.00
5415;DHT22;2730;51.512;7.504;2023-11-21T02:32:33;7.60;95.10
5415;DHT22;2730;51.512;7.504;2023-11-21T02:35:00;7.60;96.10
5415;DHT22;2730;51.512;7.504;2023-11-21T02:37:28;7.60;97.60
5415;DHT22;2730;51.512;7.504;2023-11-21T02:39:55;7.60;98.40
5415;DHT22;2730;51.512;7.504;2023-11-21T02:42:23;7.60;98.50
5415;DHT22;2730;51.512;7.504;2023-11-21T02:44:49;7.60;98.80
5415;DHT22;2730;51.512;7.504;2023-11-21T02:47:16;7.60;99.50
5415;DHT22;2730;51.512;7.504;2023-11-21T02:49:43;7.60;98.80
5415;DHT22;2730;51.512;7.504;2023-11-21T02:52:10;7.50;97.80
5415;DHT22;2730;51.512;7.504;2023-11-21T02:54:37;7.50;96.40
5415;DHT22;2730;51.512;7.504;2023-11-21T02:57:04;7.50;95.70
5415;DHT22;2730;51.512;7.504;2023-11-21T02:59:32;7.50;96.20
5415;DHT22;2730;51.512;7.504;2023-11-21T03:02:00;7.50;96.10
5415;DHT22;2730;51.512;7.504;2023-11-21T03:04:27;7.50;96.00
5415;DHT22;2730;51.512;7.504;2023-11-21T03:06:54;7.50;95.90
5415;DHT22;2730;51.512;7.504;2023-11-21T03:09:20;7.40;96.30
5415;DHT22;2730;51.512;7.504;2023-11-21T03:11:47;7.40;96.80
5415;DHT22;2730;51.512;7.504;2023-11-21T03:14:14;7.50;97.50
5415;DHT22;2730;51.512;7.504;2023-11-21T03:16:42;7.50;98.10
5415;DHT22;2730;51.512;7.504;2023-11-21T03:19:10;7.50;99.50
5415;DHT22;2730;51.512;7.504;2023-11-21T03:21:37;7.60;99.90
5415;DHT22;2730;51.512;7.504;2023-11-21T03:24:05;7.60;99.90
5415;DHT22;2730;51.512;7.504;2023-11-21T03:26:33;7.60;99.70
5415;DHT22;2730;51.512;7.504;2023-11-21T03:28:59;7.60;99.90
5415;DHT22;2730;51.512;7.504;2023-11-21T03:31:26;7.70;99.90
5415;DHT22;2730;51.512;7.504;2023-11-21T03:33:54;7.70;99.50
5415;DHT22;2730;51.512;7.504;2023-11-21T03:36:21;7.70;99.00
5415;DHT22;2730;51.512;7.504;2023-11-21T03:38:50;7.70;98.70
5415;DHT22;2730;51.512;7.504;2023-11-21T03:41:17;7.80;99.40
5415;DHT22;2730;51.512;7.504;2023-11-21T03:43:44;7.70;99.00
5415;DHT22;2730;51.512;7.504;2023-11-21T03:46:11;7.70;96.70
5415;DHT22;2730;51.512;7.504;2023-11-21T03:48:38;7.70;96.10
5415;DHT22;2730;51.512;7.504;2023-11-21T03:51:06;7.70;95.90
5415;DHT22;2730;51.512;7.504;2023-11-21T03:53:33;7.70;96.10
5415;DHT22;2730;51.512;7.504;2023-11-21T03:56:02;7.70;96.90
5415;DHT22;2730;51.512;7.504;2023-11-21T03:58:29;7.70;98.00
5415;DHT22;2730;51.512;7.504;2023-11-21T04:00:56;7.70;98.20
5415;DHT22;2730;51.512;7.504;2023-11-21T04:03:23;7.70;99.20
5415;DHT22;2730;51.512;7.504;2023-11-21T04:05:50;7.80;99.90
5415;DHT22;2730;51.512;7.504;2023-11-21T04:08:18;7.80;99.90
5415;DHT22;2730;51.512;7.504;2023-11-21T04:10:45;7.80;99.90
5415;DHT22;2730;51.512;7.504;2023-11-21T04:13:11;7.90;99.90
5415;DHT22;2730;51.512;7.504;2023-11-21T04:15:39;7.90;98.40
5415;DHT22;2730;51.512;7.504;2023-11-21T04:18:06;7.90;97.20
5415;DHT22;2730;51.512;7.504;2023-11-21T04:20:32;7.90;96.60
5415;DHT22;2730;51.512;7.504;2023-11-21T04:22:59;7.90;96.30
5415;DHT22;2730;51.512;7.504;2023-11-21T04:25:28;7.90;96.00
5415;DHT22;2730;51.512;7.504;2023-11-21T04:27:54;8.00;96.70
5415;DHT22;2730;51.512;7.504;2023-11-21T04:30:21;8.00;96.40
5415;DHT22;2730;51.512;7.504;2023-11-21T04:32:48;8.00;96.20
5415;DHT22;2730;51.512;7.504;2023-11-21T04:35:16;8.00;94.90
5415;DHT22;2730;51.512;7.504;2023-11-21T04:37:43;8.00;93.60
5415;DHT22;2730;51.512;7.504;2023-11-21T04:40:11;8.00;93.60
5415;DHT22;2730;51.512;7.504;2023-11-21T04:42:39;8.00;92.50
5415;DHT22;2730;51.512;7.504;2023-11-21T04:45:07;7.90;91.40
5415;DHT22;2730;51.512;7.504;2023-11-21T04:47:36;7.90;90.70
5415;DHT22;2730;51.512;7.504;2023-11-21T04:50:04;7.90;91.00
5415;DHT22;2730;51.512;7.504;2023-11-21T04:52:31;7.90;89.60
5415;DHT22;2730;51.512;7.504;2023-11-21T04:54:58;7.90;87.10
5415;DHT22;2730;51.512;7.504;2023-11-21T04:57:27;7.80;86.20
5415;DHT22;2730;51.512;7.504;2023-11-21T04:59:56;7.80;86.00
5415;DHT22;2730;51.512;7.504;2023-11-21T05:02:23;7.70;84.60
5415;DHT22;2730;51.512;7.504;2023-11-21T05:04:50;7.70;83.40
5415;DHT22;2730;51.512;7.504;2023-11-21T05:07:16;7.60;80.20
5415;DHT22;2730;51.512;7.504;2023-11-21T05:09:43;7.50;79.00
5415;DHT22;2730;51.512;7.504;2023-11-21T05:12:11;7.50;77.80
5415;DHT22;2730;51.512;7.504;2023-11-21T05:14:37;7.40;77.00
5415;DHT22;2730;51.512;7.504;2023-11-21T05:17:05;7.30;76.50
5415;DHT22;2730;51.512;7.504;2023-11-21T05:19:33;7.20;77.80
5415;DHT22;2730;51.512;7.504;2023-11-21T05:22:01;7.20;79.30
5415;DHT22;2730;51.512;7.504;2023-11-21T05:24:27;7.10;81.60
5415;DHT22;2730;51.512;7.504;2023-11-21T05:26:54;7.00;85.80
5415;DHT22;2730;51.512;7.504;2023-11-21T05:29:22;7.00;90.10
5415;DHT22;2730;51.512;7.504;2023-11-21T05:31:49;7.00;92.00
5415;DHT22;2730;51.512;7.504;2023-11-21T05:34:18;7.00;94.60
5415;DHT22;2730;51.512;7.504;2023-11-21T05:36:46;7.00;97.80
5415;DHT22;2730;51.512;7.504;2023-11-21T05:39:14;7.10;99.90
5415;DHT22;2730;51.512;7.504;2023-11-21T05:41:42;7.20;99.90
5415;DHT22;2730;51.512;7.504;2023-11-21T05:44:09;7.20;99.90
5415;DHT22;2730;51.512;7.504;2023-11-21T05:46:36;7.30;99.90
5415;DHT22;2730;51.512;7.504;2023-11-21T05:49:03;7.40;99.90
5415;DHT22;2730;51.512;7.504;2023-11-21T05:51:31;7.40;99.90
5415;DHT22;2730;51.512;7.504;2023-11-21T05:53:58;7.40;99.90
5415;DHT22;2730;51.512;7.504;2023-11-21T05:56:24;7.40;99.90
5415;DHT22;2730;51.512;7.504;2023-11-21T05:58:51;7.30;99.90
5415;DHT22;2730;51.512;7.504;2023-11-21T06:01:18;7.20;99.90
5415;DHT22;2730;51.512;7.504;2023-11-21T06:03:45;7.20;99.90
5415;DHT22;2730;51.512;7.504;2023-11-21T06:06:12;7.20;99.90
5415;DHT22;2730;51.512;7.504;2023-11-21T06:08:40;7.20;99.90
5415;DHT22;2730;51.512;7.504;2023-11-21T06:11:08;7.20;99.90
5415;DHT22;2730;51.512;7.504;2023-11-21T06:13:37;7.30;99.90
5415;DHT22;2730;51.512;7.504;2023-11-21T06:16:04;7.30;99.90
5415;DHT22;2730;51.512;7.504;2023-11-21T06:18:31;7.40;99.90
5415;DHT22;2730;51.512;7.504;2023-11-21T06:20:58;7.40;99.90
5415;DHT22;2730;51.512;7.504;2023-11-21T06:23:26;7.40;99.90
5415;DHT22;2730;51.512;7.504;2023-11-21T06:25:54;7.40;99.90
5415;DHT22;2730;51.512;7.504;2023-11-21T06:28:21;7.40;99.90
5415;DHT22;2730;51.512;7.504;2023-11-21T06:30:47;7.30;99.90
5415;DHT22;2730;51.512;7.504;2023-11-21T06:33:16;7.20;99.90
5415;DHT22;2730;51.512;7.504;2023-11-21T06:35:43;7.20;99.90
5415;DHT22;2730;51.512;7.504;2023-11-21T06:38:10;7.10;99.90
5415;DHT22;2730;51.512;7.504;2023-11-21T06:40:37;7.00;99.90
5415;DHT22;2730;51.512;7.504;2023-11-21T06:43:05;7.00;99.90
5415;DHT22;2730;51.512;7.504;2023-11-21T06:45:33;6.90;99.90
5415;DHT22;2730;51.512;7.504;2023-11-21T06:48:00;6.90;99.90
5415;DHT22;2730;51.512;7.504;2023-11-21T06:50:27;6.80;99.90
5415;DHT22;2730;51.512;7.504;2023-11-21T06:52:54;6.90;99.90
5415;DHT22;2730;51.512;7.504;2023-11-21T06:55:21;6.90;99.90
5415;DHT22;2730;51.512;7.504;2023-11-21T06:57:47;6.90;99.90
5415;DHT22;2730;51.512;7.504;2023-11-21T07:00:17;6.90;99.90
5415;DHT22;2730;51.512;7.504;2023-11-21T07:02:44;6.90;99.90
5415;DHT22;2730;51.512;7.504;2023-11-21T07:05:11;6.90;99.90
5415;DHT22;2730;51.512;7.504;2023-11-21T07:07:39;6.90;99.90
5415;DHT22;2730;51.512;7.504;2023-11-21T07:10:07;7.00;99.90
5415;DHT22;2730;51.512;7.504;2023-11-21T07:12:35;7.00;99.90
5415;DHT22;2730;51.512;7.504;2023-11-21T07:15:02;7.10;99.90
5415;DHT22;2730;51.512;7.504;2023-11-21T07:17:32;7.10;99.90
5415;DHT22;2730;51.512;7.504;2023-11-21T07:20:00;7.10;99.90
5415;DHT22;2730;51.512;7.504;2023-11-21T07:22:27;7.20;99.90
5415;DHT22;2730;51.512;7.504;2023-11-21T07:24:55;7.50;99.90
5415;DHT22;2730;51.512;7.504;2023-11-21T07:27:23;7.50;99.90
5415;DHT22;2730;51.512;7.504;2023-11-21T07:29:50;7.50;99.90
5415;DHT22;2730;51.512;7.504;2023-11-21T07:32:17;7.50;99.90
5415;DHT22;2730;51.512;7.504;2023-11-21T07:34:45;7.50;99.90
5415;DHT22;2730;51.512;7.504;2023-11-21T07:37:12;7.60;99.90
5415;DHT22;2730;51.512;7.504;2023-11-21T07:39:39;7.60;99.90
5415;DHT22;2730;51.512;7.504;2023-11-21T07:42:07;7.60;99.90
5415;DHT22;2730;51.512;7.504;2023-11-21T07:44:34;7.60;99.90
5415;DHT22;2730;51.512;7.504;2023-11-21T07:47:01;7.70;99.90
5415;DHT22;2730;51.512;7.504;2023-11-21T07:49:30;7.70;99.90
5415;DHT22;2730;51.512;7.504;2023-11-21T07:51:58;7.70;99.90
5415;DHT22;2730;51.512;7.504;2023-11-21T07:54:25;7.80;99.90
5415;DHT22;2730;51.512;7.504;2023-11-21T07:56:51;7.80;99.90
5415;DHT22;2730;51.512;7.504;2023-11-21T07:59:18;7.90;99.90
5415;DHT22;2730;51.512;7.504;2023-11-21T08:01:45;8.00;99.90
5415;DHT22;2730;51.512;7.504;2023-11-21T08:04:12;8.00;99.90
5415;DHT22;2730;51.512;7.504;2023-11-21T08:06:39;8.10;99.90
5415;DHT22;2730;51.512;7.504;2023-11-21T08:09:08;8.10;99.90
5415;DHT22;2730;51.512;7.504;2023-11-21T08:11:37;8.20;99.90
5415;DHT22;2730;51.512;7.504;2023-11-21T08:14:04;8.30;99.90
5415;DHT22;2730;51.512;7.504;2023-11-21T08:16:31;8.30;99.90
5415;DHT22;2730;51.512;7.504;2023-11-21T08:18:58;8.40;99.90
5415;DHT22;2730;51.512;7.504;2023-11-21T08:21:25;8.40;99.90
5415;DHT22;2730;51.512;7.504;2023-11-21T08:23:52;8.40;99.90
5415;DHT22;2730;51.512;7.504;2023-11-21T08:26:21;8.60;99.90
5415;DHT22;2730;51.512;7.504;2023-11-21T08:28:48;8.50;98.30
5415;DHT22;2730;51.512;7.504;2023-11-21T08:31:14;8.50;86.10
5415;DHT22;2730;51.512;7.504;2023-11-21T08:33:41;8.50;75.70
5415;DHT22;2730;51.512;7.504;2023-11-21T08:36:09;8.50;66.50
5415;DHT22;2730;51.512;7.504;2023-11-21T08:38:37;8.50;61.70
5415;DHT22;2730;51.512;7.504;2023-11-21T08:41:17;8.50;60.90
5415;DHT22;2730;51.512;7.504;2023-11-21T08:43:49;8.50;59.60
5415;DHT22;2730;51.512;7.504;2023-11-21T08:46:16;8.50;54.40
5415;DHT22;2730;51.512;7.504;2023-11-21T08:48:44;8.50;54.00
5415;DHT22;2730;51.512;7.504;2023-11-21T08:51:11;8.60;53.10
5415;DHT22;2730;51.512;7.504;2023-11-21T08:53:38;8.60;55.70
5415;DHT22;2730;51.512;7.504;2023-11-21T08:56:06;8.60;55.00
5415;DHT22;2730;51.512;7.504;2023-11-21T08:58:37;8.60;53.50
5415;DHT22;2730;51.512;7.504;2023-11-21T09:01:19;8.60;51.20
5415;DHT22;2730;51.512;7.504;2023-11-21T09:03:46;8.60;50.00
5415;DHT22;2730;51.512;7.504;2023-11-21T09:06:13;8.70;48.40
5415;DHT22;2730;51.512;7.504;2023-11-21T09:08:40;8.70;43.30
5415;DHT22;2730;51.512;7.504;2023-11-21T09:11:07;8.70;34.90
5415;DHT22;2730;51.512;7.504;2023-11-21T09:13:34;8.70;31.10
5415;DHT22;2730;51.512;7.504;2023-11-21T09:16:01;8.80;28.50
5415;DHT22;2730;51.512;7.504;2023-11-21T09:18:30;8.80;22.70
5415;DHT22;2730;51.512;7.504;2023-11-21T09:20:56;8.80;19.40
5415;DHT22;2730;51.512;7.504;2023-11-21T09:23:24;8.90;16.80
5415;DHT22;2730;51.512;7.504;2023-11-21T09:25:51;8.90;9.00
5415;DHT22;2730;51.512;7.504;2023-11-21T09:28:20;9.00;3.20
5415;DHT22;2730;51.512;7.504;2023-11-21T09:30:46;9.00;1.30
5415;DHT22;2730;51.512;7.504;2023-11-21T09:33:15;9.00;1.00
5415;DHT22;2730;51.512;7.504;2023-11-21T09:35:43;9.00;1.00
5415;DHT22;2730;51.512;7.504;2023-11-21T09:38:10;9.10;1.00
5415;DHT22;2730;51.512;7.504;2023-11-21T09:40:37;9.20;1.00
5415;DHT22;2730;51.512;7.504;2023-11-21T09:43:06;9.30;1.00
5415;DHT22;2730;51.512;7.504;2023-11-21T09:45:35;9.40;1.00
5415;DHT22;2730;51.512;7.504;2023-11-21T09:48:02;9.60;1.00
5415;DHT22;2730;51.512;7.504;2023-11-21T09:50:31;9.60;1.00
5415;DHT22;2730;51.512;7.504;2023-11-21T09:53:09;9.60;1.00
5415;DHT22;2730;51.512;7.504;2023-11-21T09:55:42;9.50;1.00
5415;DHT22;2730;51.512;7.504;2023-11-21T09:58:09;9.50;1.00
5415;DHT22;2730;51.512;7.504;2023-11-21T10:00:40;9.40;1.00
5415;DHT22;2730;51.512;7.504;2023-11-21T10:03:07;9.50;1.00
5415;DHT22;2730;51.512;7.504;2023-11-21T10:05:34;9.50;1.00
5415;DHT22;2730;51.512;7.504;2023-11-21T10:08:04;9.50;1.00
5415;DHT22;2730;51.512;7.504;2023-11-21T10:10:32;9.50;1.00
5415;DHT22;2730;51.512;7.504;2023-11-21T10:13:02;9.50;1.00
5415;DHT22;2730;51.512;7.504;2023-11-21T10:15:34;9.50;1.00
5415;DHT22;2730;51.512;7.504;2023-11-21T10:18:03;9.40;1.00
5415;DHT22;2730;51.512;7.504;2023-11-21T10:20:32;9.40;1.00
5415;DHT22;2730;51.512;7.504;2023-11-21T10:23:01;9.50;1.00
5415;DHT22;2730;51.512;7.504;2023-11-21T10:25:29;9.60;1.00
5415;DHT22;2730;51.512;7.504;2023-11-21T10:27:58;9.60;1.00
5415;DHT22;2730;51.512;7.504;2023-11-21T10:30:32;9.60;1.00
5415;DHT22;2730;51.512;7.504;2023-11-21T10:33:03;9.60;1.00
5415;DHT22;2730;51.512;7.504;2023-11-21T10:35:39;9.60;1.00
5415;DHT22;2730;51.512;7.504;2023-11-21T10:38:13;9.60;1.00
5415;DHT22;2730;51.512;7.504;2023-11-21T10:40:40;9.60;1.00
5415;DHT22;2730;51.512;7.504;2023-11-21T10:43:08;9.60;1.00
5415;DHT22;2730;51.512;7.504;2023-11-21T10:45:36;9.60;1.00
5415;DHT22;2730;51.512;7.504;2023-11-21T10:48:05;9.60;1.00
5415;DHT22;2730;51.512;7.504;2023-11-21T10:50:33;9.60;1.00
5415;DHT22;2730;51.512;7.504;2023-11-21T10:53:02;9.70;1.00
5415;DHT22;2730;51.512;7.504;2023-11-21T10:55:31;9.70;1.00
5415;DHT22;2730;51.512;7.504;2023-11-21T10:58:00;9.60;1.00
5415;DHT22;2730;51.512;7.504;2023-11-21T11:00:28;9.60;1.00
5415;DHT22;2730;51.512;7.504;2023-11-21T11:02:56;9.60;1.00
5415;DHT22;2730;51.512;7.504;2023-11-21T11:05:25;9.60;1.00
5415;DHT22;2730;51.512;7.504;2023-11-21T11:07:58;9.50;1.00
5415;DHT22;2730;51.512;7.504;2023-11-21T11:10:27;9.50;1.00
5415;DHT22;2730;51.512;7.504;2023-11-21T11:12:57;9.50;1.00
5415;DHT22;2730;51.512;7.504;2023-11-21T11:15:24;9.50;1.00
5415;DHT22;2730;51.512;7.504;2023-11-21T11:17:52;9.40;1.00
5415;DHT22;2730;51.512;7.504;2023-11-21T11:20:23;9.40;1.80
5415;DHT22;2730;51.512;7.504;2023-11-21T11:23:04;9.30;1.00
5415;DHT22;2730;51.512;7.504;2023-11-21T11:25:57;9.30;5.30
5415;DHT22;2730;51.512;7.504;2023-11-21T11:28:32;9.30;5.70
5415;DHT22;2730;51.512;7.504;2023-11-21T11:31:05;9.30;10.20
5415;DHT22;2730;51.512;7.504;2023-11-21T11:33:41;9.30;15.90
5415;DHT22;2730;51.512;7.504;2023-11-21T11:36:15;9.20;22.40
5415;DHT22;2730;51.512;7.504;2023-11-21T11:38:46;9.30;28.40
5415;DHT22;2730;51.512;7.504;2023-11-21T11:41:24;9.20;34.00
5415;DHT22;2730;51.512;7.504;2023-11-21T11:43:54;9.20;42.10
5415;DHT22;2730;51.512;7.504;2023-11-21T11:46:21;9.10;53.30
5415;DHT22;2730;51.512;7.504;2023-11-21T11:49:07;9.20;63.10
5415;DHT22;2730;51.512;7.504;2023-11-21T11:51:33;9.20;69.40
5415;DHT22;2730;51.512;7.504;2023-11-21T11:54:01;9.10;74.70
5415;DHT22;2730;51.512;7.504;2023-11-21T11:56:30;9.00;70.80
5415;DHT22;2730;51.512;7.504;2023-11-21T11:59:00;9.00;74.30
5415;DHT22;2730;51.512;7.504;2023-11-21T12:01:30;9.00;76.10
5415;DHT22;2730;51.512;7.504;2023-11-21T12:04:26;9.00;81.20
5415;DHT22;2730;51.512;7.504;2023-11-21T12:07:01;9.00;85.80
5415;DHT22;2730;51.512;7.504;2023-11-21T12:09:30;9.10;92.00
5415;DHT22;2730;51.512;7.504;2023-11-21T12:11:58;9.10;91.70
5415;DHT22;2730;51.512;7.504;2023-11-21T12:14:27;9.10;92.60
5415;DHT22;2730;51.512;7.504;2023-11-21T12:16:54;9.10;95.00
5415;DHT22;2730;51.512;7.504;2023-11-21T12:19:21;9.10;93.60
5415;DHT22;2730;51.512;7.504;2023-11-21T12:21:49;9.10;92.70
5415;DHT22;2730;51.512;7.504;2023-11-21T12:24:16;9.20;92.70
5415;DHT22;2730;51.512;7.504;2023-11-21T12:26:43;9.20;90.90
5415;DHT22;2730;51.512;7.504;2023-11-21T12:29:10;9.20;85.40
5415;DHT22;2730;51.512;7.504;2023-11-21T12:31:39;9.10;73.20
5415;DHT22;2730;51.512;7.504;2023-11-21T12:34:06;9.10;71.70
5415;DHT22;2730;51.512;7.504;2023-11-21T12:36:37;9.10;75.00
5415;DHT22;2730;51.512;7.504;2023-11-21T12:39:04;9.10;78.80
5415;DHT22;2730;51.512;7.504;2023-11-21T12:41:30;9.10;79.30
5415;DHT22;2730;51.512;7.504;2023-11-21T12:43:57;9.20;78.40
5415;DHT22;2730;51.512;7.504;2023-11-21T12:46:25;9.20;76.50
5415;DHT22;2730;51.512;7.504;2023-11-21T12:48:56;9.20;64.30
5415;DHT22;2730;51.512;7.504;2023-11-21T12:51:23;9.10;59.10
5415;DHT22;2730;51.512;7.504;2023-11-21T12:53:51;9.10;54.70
5415;DHT22;2730;51.512;7.504;2023-11-21T12:56:18;9.10;48.50
5415;DHT22;2730;51.512;7.504;2023-11-21T12:58:48;9.00;50.50
5415;DHT22;2730;51.512;7.504;2023-11-21T13:01:16;9.00;56.50
5415;DHT22;2730;51.512;7.504;2023-11-21T13:03:46;9.10;64.20
5415;DHT22;2730;51.512;7.504;2023-11-21T13:06:17;9.00;66.80
5415;DHT22;2730;51.512;7.504;2023-11-21T13:08:45;9.10;76.40
5415;DHT22;2730;51.512;7.504;2023-11-21T13:11:12;9.20;78.40
5415;DHT22;2730;51.512;7.504;2023-11-21T13:13:41;9.20;70.80
5415;DHT22;2730;51.512;7.504;2023-11-21T13:16:09;9.20;66.70
5415;DHT22;2730;51.512;7.504;2023-11-21T13:18:36;9.10;58.30
5415;DHT22;2730;51.512;7.504;2023-11-21T13:21:06;9.10;54.10
5415;DHT22;2730;51.512;7.504;2023-11-21T13:23:38;9.00;49.50
5415;DHT22;2730;51.512;7.504;2023-11-21T13:26:07;9.00;48.70
5415;DHT22;2730;51.512;7.504;2023-11-21T13:28:34;8.90;53.70
5415;DHT22;2730;51.512;7.504;2023-11-21T13:31:04;8.90;57.10
5415;DHT22;2730;51.512;7.504;2023-11-21T13:33:35;8.90;64.00
5415;DHT22;2730;51.512;7.504;2023-11-21T13:36:04;8.90;67.40
5415;DHT22;2730;51.512;7.504;2023-11-21T13:38:33;9.00;64.00
5415;DHT22;2730;51.512;7.504;2023-11-21T13:41:03;9.00;52.90
5415;DHT22;2730;51.512;7.504;2023-11-21T13:43:33;8.90;51.40
5415;DHT22;2730;51.512;7.504;2023-11-21T13:46:02;8.90;46.50
5415;DHT22;2730;51.512;7.504;2023-11-21T13:48:36;8.90;43.70
5415;DHT22;2730;51.512;7.504;2023-11-21T13:51:07;8.90;42.50
5415;DHT22;2730;51.512;7.504;2023-11-21T13:53:41;8.90;43.10
5415;DHT22;2730;51.512;7.504;2023-11-21T13:56:10;8.90;42.50
5415;DHT22;2730;51.512;7.504;2023-11-21T13:58:38;8.90;42.40
5415;DHT22;2730;51.512;7.504;2023-11-21T14:01:16;8.90;40.90
5415;DHT22;2730;51.512;7.504;2023-11-21T14:04:10;8.80;32.70
5415;DHT22;2730;51.512;7.504;2023-11-21T14:06:46;8.80;35.00
5415;DHT22;2730;51.512;7.504;2023-11-21T14:09:15;8.80;30.40
5415;DHT22;2730;51.512;7.504;2023-11-21T14:11:51;8.80;33.80
5415;DHT22;2730;51.512;7.504;2023-11-21T14:14:19;8.80;36.50
5415;DHT22;2730;51.512;7.504;2023-11-21T14:16:47;8.90;39.50
5415;DHT22;2730;51.512;7.504;2023-11-21T14:19:14;8.80;29.90
5415;DHT22;2730;51.512;7.504;2023-11-21T14:21:42;8.70;31.20
5415;DHT22;2730;51.512;7.504;2023-11-21T14:24:10;8.70;29.80
5415;DHT22;2730;51.512;7.504;2023-11-21T14:26:39;8.70;31.80
5415;DHT22;2730;51.512;7.504;2023-11-21T14:29:07;8.60;30.00
5415;DHT22;2730;51.512;7.504;2023-11-21T14:31:36;8.60;31.50
5415;DHT22;2730;51.512;7.504;2023-11-21T14:34:03;8.60;31.70
5415;DHT22;2730;51.512;7.504;2023-11-21T14:36:32;8.60;36.60
5415;DHT22;2730;51.512;7.504;2023-11-21T14:38:59;8.60;38.40
5415;DHT22;2730;51.512;7.504;2023-11-21T14:41:27;8.70;36.30
5415;DHT22;2730;51.512;7.504;2023-11-21T14:43:55;8.60;29.90
5415;DHT22;2730;51.512;7.504;2023-11-21T14:46:24;8.60;26.50
5415;DHT22;2730;51.512;7.504;2023-11-21T14:48:51;8.70;25.70
5415;DHT22;2730;51.512;7.504;2023-11-21T14:51:28;8.70;25.20
5415;DHT22;2730;51.512;7.504;2023-11-21T14:53:57;8.70;17.70
5415;DHT22;2730;51.512;7.504;2023-11-21T14:56:31;8.60;16.80
5415;DHT22;2730;51.512;7.504;2023-11-21T14:59:00;8.50;17.50
5415;DHT22;2730;51.512;7.504;2023-11-21T15:01:32;8.40;25.00
5415;DHT22;2730;51.512;7.504;2023-11-21T15:04:13;8.30;27.60
5415;DHT22;2730;51.512;7.504;2023-11-21T15:06:52;8.30;28.50
5415;DHT22;2730;51.512;7.504;2023-11-21T15:09:21;8.30;31.60
5415;DHT22;2730;51.512;7.504;2023-11-21T15:12:02;8.30;33.10
5415;DHT22;2730;51.512;7.504;2023-11-21T15:14:39;8.20;27.40
5415;DHT22;2730;51.512;7.504;2023-11-21T15:17:07;8.30;26.80
5415;DHT22;2730;51.512;7.504;2023-11-21T15:19:35;8.30;26.40
5415;DHT22;2730;51.512;7.504;2023-11-21T15:22:02;8.20;25.30
5415;DHT22;2730;51.512;7.504;2023-11-21T15:24:29;8.20;27.80
5415;DHT22;2730;51.512;7.504;2023-11-21T15:27:00;8.10;28.70
5415;DHT22;2730;51.512;7.504;2023-11-21T15:29:28;8.00;35.50
5415;DHT22;2730;51.512;7.504;2023-11-21T15:31:55;7.90;41.90
5415;DHT22;2730;51.512;7.504;2023-11-21T15:34:24;7.80;42.30
5415;DHT22;2730;51.512;7.504;2023-11-21T15:36:52;7.70;44.00
5415;DHT22;2730;51.512;7.504;2023-11-21T15:39:20;7.60;45.50
5415;DHT22;2730;51.512;7.504;2023-11-21T15:41:49;7.60;49.00
5415;DHT22;2730;51.512;7.504;2023-11-21T15:44:16;7.50;45.20
5415;DHT22;2730;51.512;7.504;2023-11-21T15:46:43;7.50;47.60
5415;DHT22;2730;51.512;7.504;2023-11-21T15:49:10;7.50;45.80
5415;DHT22;2730;51.512;7.504;2023-11-21T15:51:42;7.50;35.20
5415;DHT22;2730;51.512;7.504;2023-11-21T15:54:12;7.50;16.00
5415;DHT22;2730;51.512;7.504;2023-11-21T15:56:39;7.50;2.40
5415;DHT22;2730;51.512;7.504;2023-11-21T15:59:05;7.50;1.00
5415;DHT22;2730;51.512;7.504;2023-11-21T16:01:32;7.50;1.00
5415;DHT22;2730;51.512;7.504;2023-11-21T16:04:00;7.40;1.00
5415;DHT22;2730;51.512;7.504;2023-11-21T16:06:28;7.50;1.00
5415;DHT22;2730;51.512;7.504;2023-11-21T16:08:57;7.50;1.00
5415;DHT22;2730;51.512;7.504;2023-11-21T16:11:25;7.40;1.00
5415;DHT22;2730;51.512;7.504;2023-11-21T16:13:52;7.30;1.00
5415;DHT22;2730;51.512;7.504;2023-11-21T16:16:22;7.20;1.00
5415;DHT22;2730;51.512;7.504;2023-11-21T16:18:49;7.10;1.00
5415;DHT22;2730;51.512;7.504;2023-11-21T16:21:16;7.00;1.00
5415;DHT22;2730;51.512;7.504;2023-11-21T16:23:43;7.00;1.00
5415;DHT22;2730;51.512;7.504;2023-11-21T16:26:11;7.00;1.00
5415;DHT22;2730;51.512;7.504;2023-11-21T16:28:39;6.90;1.00